sensor_id;sensor_type;location;lat;lon;timestamp;pressure;altitude;pressure_sealevel;temperature;humidity
69239;BME280;56349;51.816;-0.026;2023-01-28T00:01:08;102545.38;;;18.96;34.23
69239;BME280;56349;51.816;-0.026;2023-01-28T00:03:32;102549.66;;;18.94;34.24
69239;BME280;56349;51.816;-0.026;2023-01-28T00:06:02;102551.10;;;18.86;34.32
69239;BME280;56349;51.816;-0.026;2023-01-28T00:08:24;102548.56;;;18.79;34.39
69239;BME280;56349;51.816;-0.026;2023-01-28T00:10:50;102541.96;;;18.50;34.47
69239;BME280;56349;51.816;-0.026;2023-01-28T00:13:16;102549.99;;;18.66;34.54
69239;BME280;56349;51.816;-0.026;2023-01-28T00:15:42;102546.87;;;18.63;34.58
69239;BME280;56349;51.816;-0.026;2023-01-28T00:18:07;102547.62;;;18.59;34.60
69239;BME280;56349;51.816;-0.026;2023-01-28T00:20:33;102549.64;;;18.53;34.66
69239;BME280;56349;51.816;-0.026;2023-01-28T00:22:59;102555.76;;;18.46;34.72
69239;BME280;56349;51.816;-0.026;2023-01-28T00:25:25;102556.90;;;18.40;34.79
69239;BME280;56349;51.816;-0.026;2023-01-28T00:27:51;102555.85;;;18.36;34.83
69239;BME280;56349;51.816;-0.026;2023-01-28T00:30:17;102551.90;;;18.32;34.86
69239;BME280;56349;51.816;-0.026;2023-01-28T00:32:43;102552.49;;;18.27;34.93
69239;BME280;56349;51.816;-0.026;2023-01-28T00:35:09;102551.01;;;18.23;34.97
69239;BME280;56349;51.816;-0.026;2023-01-28T00:37:34;102547.76;;;18.18;35.00
69239;BME280;56349;51.816;-0.026;2023-01-28T00:40:00;102549.17;;;18.14;35.05
69239;BME280;56349;51.816;-0.026;2023-01-28T00:42:26;102543.70;;;18.11;35.08
69239;BME280;56349;51.816;-0.026;2023-01-28T00:44:52;102543.35;;;18.07;35.10
69239;BME280;56349;51.816;-0.026;2023-01-28T00:47:18;102538.84;;;18.02;35.14
69239;BME280;56349;51.816;-0.026;2023-01-28T00:49:44;102537.16;;;17.98;35.17
69239;BME280;56349;51.816;-0.026;2023-01-28T00:52:10;102536.49;;;18.21;35.22
69239;BME280;56349;51.816;-0.026;2023-01-28T00:54:35;102533.09;;;17.91;35.25
69239;BME280;56349;51.816;-0.026;2023-01-28T00:57:01;102530.52;;;17.88;35.26
69239;BME280;56349;51.816;-0.026;2023-01-28T00:59:27;102535.38;;;17.87;35.27
69239;BME280;56349;51.816;-0.026;2023-01-28T01:01:53;102540.24;;;17.86;35.26
69239;BME280;56349;51.816;-0.026;2023-01-28T01:04:19;102543.62;;;17.83;35.28
69239;BME280;56349;51.816;-0.026;2023-01-28T01:06:45;102549.48;;;17.77;35.33
69239;BME280;56349;51.816;-0.026;2023-01-28T01:09:11;102551.57;;;18.00;35.37
69239;BME280;56349;51.816;-0.026;2023-01-28T01:11:36;102554.71;;;17.96;35.40
69239;BME280;56349;51.816;-0.026;2023-01-28T01:14:03;102549.58;;;17.67;35.41
69239;BME280;56349;51.816;-0.026;2023-01-28T01:16:29;102546.49;;;17.65;35.41
69239;BME280;56349;51.816;-0.026;2023-01-28T01:18:54;102550.90;;;17.62;35.44
69239;BME280;56349;51.816;-0.026;2023-01-28T01:21:21;102551.08;;;17.86;35.45
69239;BME280;56349;51.816;-0.026;2023-01-28T01:23:45;102550.43;;;17.54;35.48
69239;BME280;56349;51.816;-0.026;2023-01-28T01:26:11;102549.29;;;18.00;35.51
69239;BME280;56349;51.816;-0.026;2023-01-28T01:28:36;102551.72;;;17.97;35.52
69239;BME280;56349;51.816;-0.026;2023-01-28T01:31:03;102551.88;;;17.72;35.54
69239;BME280;56349;51.816;-0.026;2023-01-28T01:33:28;102549.55;;;17.72;35.54
69239;BME280;56349;51.816;-0.026;2023-01-28T01:35:54;102544.64;;;17.92;35.53
69239;BME280;56349;51.816;-0.026;2023-01-28T01:38:19;102541.03;;;17.67;35.57
69239;BME280;56349;51.816;-0.026;2023-01-28T01:40:45;102535.12;;;17.85;35.59
69239;BME280;56349;51.816;-0.026;2023-01-28T01:43:15;102532.61;;;17.81;35.61
69239;BME280;56349;51.816;-0.026;2023-01-28T01:45:36;102535.71;;;17.57;35.62
69239;BME280;56349;51.816;-0.026;2023-01-28T01:48:06;102535.23;;;17.77;35.63
69239;BME280;56349;51.816;-0.026;2023-01-28T01:50:30;102535.80;;;17.25;35.65
69239;BME280;56349;51.816;-0.026;2023-01-28T01:52:56;102538.68;;;17.73;35.64
69239;BME280;56349;51.816;-0.026;2023-01-28T01:55:20;102537.99;;;17.70;35.64
69239;BME280;56349;51.816;-0.026;2023-01-28T01:57:46;102538.97;;;17.68;35.66
69239;BME280;56349;51.816;-0.026;2023-01-28T02:00:11;102541.99;;;17.65;35.68
69239;BME280;56349;51.816;-0.026;2023-01-28T02:02:38;102543.73;;;17.40;35.70
69239;BME280;56349;51.816;-0.026;2023-01-28T02:05:01;102541.81;;;17.82;35.71
69239;BME280;56349;51.816;-0.026;2023-01-28T02:07:27;102541.80;;;17.56;35.72
69239;BME280;56349;51.816;-0.026;2023-01-28T02:09:52;102546.43;;;17.31;35.74
69239;BME280;56349;51.816;-0.026;2023-01-28T02:12:22;102545.18;;;17.28;35.75
69239;BME280;56349;51.816;-0.026;2023-01-28T02:14:46;102547.48;;;17.51;35.79
69239;BME280;56349;51.816;-0.026;2023-01-28T02:17:10;102547.85;;;17.32;35.84
69239;BME280;56349;51.816;-0.026;2023-01-28T02:19:37;102544.61;;;17.54;35.90
69239;BME280;56349;51.816;-0.026;2023-01-28T02:22:12;102543.56;;;17.55;35.95
69239;BME280;56349;51.816;-0.026;2023-01-28T02:27:03;102536.70;;;17.60;35.99
69239;BME280;56349;51.816;-0.026;2023-01-28T02:29:21;102535.00;;;17.40;35.99
69239;BME280;56349;51.816;-0.026;2023-01-28T02:31:47;102534.45;;;17.65;35.96
69239;BME280;56349;51.816;-0.026;2023-01-28T02:34:16;102538.62;;;17.43;35.94
69239;BME280;56349;51.816;-0.026;2023-01-28T02:36:38;102541.29;;;17.45;35.91
69239;BME280;56349;51.816;-0.026;2023-01-28T02:39:05;102542.42;;;17.43;35.93
69239;BME280;56349;51.816;-0.026;2023-01-28T02:41:30;102543.15;;;17.66;36.00
69239;BME280;56349;51.816;-0.026;2023-01-28T02:43:50;102546.14;;;17.66;36.09
69239;BME280;56349;51.816;-0.026;2023-01-28T02:46:21;102546.12;;;17.70;36.13
69239;BME280;56349;51.816;-0.026;2023-01-28T02:48:41;102549.34;;;17.71;36.17
69239;BME280;56349;51.816;-0.026;2023-01-28T02:51:14;102550.08;;;17.71;36.22
69239;BME280;56349;51.816;-0.026;2023-01-28T02:53:39;102552.66;;;17.48;36.28
69239;BME280;56349;51.816;-0.026;2023-01-28T02:56:04;102560.90;;;17.49;36.30
69239;BME280;56349;51.816;-0.026;2023-01-28T02:58:31;102564.93;;;17.49;36.32
69239;BME280;56349;51.816;-0.026;2023-01-28T03:00:53;102559.24;;;17.70;36.37
69239;BME280;56349;51.816;-0.026;2023-01-28T03:03:19;102559.52;;;17.49;36.36
69239;BME280;56349;51.816;-0.026;2023-01-28T03:05:43;102560.49;;;17.49;36.38
69239;BME280;56349;51.816;-0.026;2023-01-28T03:08:06;102561.85;;;17.70;36.41
69239;BME280;56349;51.816;-0.026;2023-01-28T03:10:31;102570.60;;;17.69;36.42
69239;BME280;56349;51.816;-0.026;2023-01-28T03:12:58;102571.64;;;17.69;36.44
69239;BME280;56349;51.816;-0.026;2023-01-28T03:15:25;102570.05;;;17.69;36.44
69239;BME280;56349;51.816;-0.026;2023-01-28T03:17:54;102568.34;;;17.68;36.46
69239;BME280;56349;51.816;-0.026;2023-01-28T03:20:15;102568.18;;;17.66;36.48
69239;BME280;56349;51.816;-0.026;2023-01-28T03:22:40;102570.26;;;17.66;36.48
69239;BME280;56349;51.816;-0.026;2023-01-28T03:25:07;102578.68;;;17.65;36.50
69239;BME280;56349;51.816;-0.026;2023-01-28T03:27:35;102582.48;;;17.65;36.51
69239;BME280;56349;51.816;-0.026;2023-01-28T03:30:00;102583.19;;;17.64;36.52
69239;BME280;56349;51.816;-0.026;2023-01-28T03:32:22;102583.45;;;17.63;36.54
69239;BME280;56349;51.816;-0.026;2023-01-28T03:34:48;102582.82;;;17.64;36.54
69239;BME280;56349;51.816;-0.026;2023-01-28T03:37:14;102580.78;;;17.39;36.57
69239;BME280;56349;51.816;-0.026;2023-01-28T03:39:40;102577.88;;;17.58;36.55
69239;BME280;56349;51.816;-0.026;2023-01-28T03:42:08;102580.44;;;17.55;36.52
69239;BME280;56349;51.816;-0.026;2023-01-28T03:44:32;102584.50;;;17.53;36.46
69239;BME280;56349;51.816;-0.026;2023-01-28T03:46:56;102587.21;;;17.27;36.45
69239;BME280;56349;51.816;-0.026;2023-01-28T03:49:22;102584.28;;;17.44;36.45
69239;BME280;56349;51.816;-0.026;2023-01-28T03:51:48;102583.06;;;17.17;36.47
69239;BME280;56349;51.816;-0.026;2023-01-28T03:54:14;102581.76;;;17.38;36.42
69239;BME280;56349;51.816;-0.026;2023-01-28T03:56:40;102576.22;;;17.56;36.44
69239;BME280;56349;51.816;-0.026;2023-01-28T03:59:06;102580.33;;;17.31;36.43
69239;BME280;56349;51.816;-0.026;2023-01-28T04:01:31;102587.75;;;17.27;36.44
69239;BME280;56349;51.816;-0.026;2023-01-28T04:03:57;102587.82;;;17.47;36.43
69239;BME280;56349;51.816;-0.026;2023-01-28T04:06:24;102585.21;;;17.23;36.42
69239;BME280;56349;51.816;-0.026;2023-01-28T04:08:49;102585.24;;;17.20;36.40
69239;BME280;56349;51.816;-0.026;2023-01-28T04:11:14;102587.96;;;17.16;36.42
69239;BME280;56349;51.816;-0.026;2023-01-28T04:13:40;102587.71;;;17.12;36.42
69239;BME280;56349;51.816;-0.026;2023-01-28T04:16:06;102583.29;;;17.06;36.43
69239;BME280;56349;51.816;-0.026;2023-01-28T04:18:32;102582.26;;;17.03;36.44
69239;BME280;56349;51.816;-0.026;2023-01-28T04:20:57;102591.54;;;16.99;36.46
69239;BME280;56349;51.816;-0.026;2023-01-28T04:23:23;102591.84;;;16.99;36.43
69239;BME280;56349;51.816;-0.026;2023-01-28T04:25:49;102586.52;;;16.96;36.43
69239;BME280;56349;51.816;-0.026;2023-01-28T04:28:15;102587.76;;;16.93;36.45
69239;BME280;56349;51.816;-0.026;2023-01-28T04:30:41;102590.14;;;17.12;36.50
69239;BME280;56349;51.816;-0.026;2023-01-28T04:33:07;102580.09;;;17.11;36.55
69239;BME280;56349;51.816;-0.026;2023-01-28T04:35:32;102574.31;;;16.89;36.62
69239;BME280;56349;51.816;-0.026;2023-01-28T04:37:58;102572.77;;;17.18;36.64
69239;BME280;56349;51.816;-0.026;2023-01-28T04:40:24;102571.74;;;16.85;36.60
69239;BME280;56349;51.816;-0.026;2023-01-28T04:42:52;102570.51;;;17.24;36.50
69239;BME280;56349;51.816;-0.026;2023-01-28T04:45:15;102567.58;;;17.41;36.35
69239;BME280;56349;51.816;-0.026;2023-01-28T04:47:41;102564.48;;;17.37;36.19
69239;BME280;56349;51.816;-0.026;2023-01-28T04:50:07;102563.53;;;17.32;35.95
69239;BME280;56349;51.816;-0.026;2023-01-28T04:52:31;102566.72;;;17.54;35.64
69239;BME280;56349;51.816;-0.026;2023-01-28T04:54:57;102560.23;;;17.72;35.34
69239;BME280;56349;51.816;-0.026;2023-01-28T04:57:23;102557.62;;;18.12;35.07
69239;BME280;56349;51.816;-0.026;2023-01-28T04:59:49;102557.42;;;17.92;34.85
69239;BME280;56349;51.816;-0.026;2023-01-28T05:02:15;102565.42;;;17.94;34.71
69239;BME280;56349;51.816;-0.026;2023-01-28T05:04:40;102571.40;;;17.92;34.62
69239;BME280;56349;51.816;-0.026;2023-01-28T05:07:06;102566.89;;;18.14;34.59
69239;BME280;56349;51.816;-0.026;2023-01-28T05:09:32;102559.75;;;17.83;34.60
69239;BME280;56349;51.816;-0.026;2023-01-28T05:11:58;102565.65;;;17.79;34.65
69239;BME280;56349;51.816;-0.026;2023-01-28T05:14:23;102567.76;;;17.74;34.71
69239;BME280;56349;51.816;-0.026;2023-01-28T05:16:49;102568.74;;;17.67;34.85
69239;BME280;56349;51.816;-0.026;2023-01-28T05:19:15;102574.79;;;18.08;35.03
69239;BME280;56349;51.816;-0.026;2023-01-28T05:21:40;102574.37;;;17.53;35.21
69239;BME280;56349;51.816;-0.026;2023-01-28T05:24:07;102571.40;;;17.75;35.40
69239;BME280;56349;51.816;-0.026;2023-01-28T05:26:31;102573.10;;;17.94;35.56
69239;BME280;56349;51.816;-0.026;2023-01-28T05:28:57;102572.90;;;17.69;35.75
69239;BME280;56349;51.816;-0.026;2023-01-28T05:31:23;102567.84;;;17.68;35.91
69239;BME280;56349;51.816;-0.026;2023-01-28T05:33:49;102567.80;;;17.89;36.09
69239;BME280;56349;51.816;-0.026;2023-01-28T05:36:15;102572.82;;;17.89;36.25
69239;BME280;56349;51.816;-0.026;2023-01-28T05:38:40;102567.97;;;17.90;36.42
69239;BME280;56349;51.816;-0.026;2023-01-28T05:41:06;102565.05;;;17.89;36.59
69239;BME280;56349;51.816;-0.026;2023-01-28T05:43:32;102570.71;;;17.90;36.73
69239;BME280;56349;51.816;-0.026;2023-01-28T05:45:58;102572.59;;;17.43;36.86
69239;BME280;56349;51.816;-0.026;2023-01-28T05:48:23;102578.81;;;17.71;36.96
69239;BME280;56349;51.816;-0.026;2023-01-28T05:50:49;102580.81;;;17.97;37.07
69239;BME280;56349;51.816;-0.026;2023-01-28T05:53:15;102582.71;;;17.79;37.14
69239;BME280;56349;51.816;-0.026;2023-01-28T05:55:41;102582.58;;;18.04;37.21
69239;BME280;56349;51.816;-0.026;2023-01-28T05:58:07;102582.06;;;17.86;37.28
69239;BME280;56349;51.816;-0.026;2023-01-28T06:00:32;102585.43;;;17.62;37.34
69239;BME280;56349;51.816;-0.026;2023-01-28T06:02:58;102581.73;;;17.67;37.37
69239;BME280;56349;51.816;-0.026;2023-01-28T06:05:23;102583.78;;;18.03;37.36
69239;BME280;56349;51.816;-0.026;2023-01-28T06:07:49;102585.67;;;18.30;37.39
69239;BME280;56349;51.816;-0.026;2023-01-28T06:10:15;102584.39;;;18.33;37.43
69239;BME280;56349;51.816;-0.026;2023-01-28T06:12:40;102579.63;;;17.88;37.47
69239;BME280;56349;51.816;-0.026;2023-01-28T06:15:06;102579.54;;;17.92;37.48
69239;BME280;56349;51.816;-0.026;2023-01-28T06:17:31;102585.89;;;17.95;37.52
69239;BME280;56349;51.816;-0.026;2023-01-28T06:19:57;102594.03;;;18.00;37.52
69239;BME280;56349;51.816;-0.026;2023-01-28T06:22:23;102590.55;;;18.08;37.50
69239;BME280;56349;51.816;-0.026;2023-01-28T06:24:49;102586.83;;;18.38;37.50
69239;BME280;56349;51.816;-0.026;2023-01-28T06:27:13;102584.75;;;18.18;37.46
69239;BME280;56349;51.816;-0.026;2023-01-28T06:29:39;102588.07;;;18.48;37.43
69239;BME280;56349;51.816;-0.026;2023-01-28T06:32:05;102584.30;;;18.52;37.36
69239;BME280;56349;51.816;-0.026;2023-01-28T06:34:31;102588.88;;;18.28;37.31
69239;BME280;56349;51.816;-0.026;2023-01-28T06:36:57;102582.79;;;18.28;37.24
69239;BME280;56349;51.816;-0.026;2023-01-28T06:39:23;102583.21;;;18.29;37.16
69239;BME280;56349;51.816;-0.026;2023-01-28T06:41:49;102591.04;;;18.31;37.06
69239;BME280;56349;51.816;-0.026;2023-01-28T06:44:14;102595.45;;;18.34;36.94
69239;BME280;56349;51.816;-0.026;2023-01-28T06:46:40;102596.06;;;18.62;36.83
69239;BME280;56349;51.816;-0.026;2023-01-28T06:49:06;102590.28;;;18.35;36.74
69239;BME280;56349;51.816;-0.026;2023-01-28T06:51:32;102586.71;;;18.61;36.64
69239;BME280;56349;51.816;-0.026;2023-01-28T06:53:57;102589.42;;;18.59;36.56
69239;BME280;56349;51.816;-0.026;2023-01-28T06:56:23;102593.17;;;18.32;36.47
69239;BME280;56349;51.816;-0.026;2023-01-28T06:58:49;102599.30;;;18.32;36.37
69239;BME280;56349;51.816;-0.026;2023-01-28T07:01:15;102599.33;;;18.30;36.29
69239;BME280;56349;51.816;-0.026;2023-01-28T07:03:41;102601.09;;;18.55;36.22
69239;BME280;56349;51.816;-0.026;2023-01-28T07:06:07;102601.61;;;18.26;36.15
69239;BME280;56349;51.816;-0.026;2023-01-28T07:08:33;102609.57;;;18.24;36.08
69239;BME280;56349;51.816;-0.026;2023-01-28T07:10:59;102606.44;;;18.23;36.00
69239;BME280;56349;51.816;-0.026;2023-01-28T07:13:25;102603.48;;;18.21;35.94
69239;BME280;56349;51.816;-0.026;2023-01-28T07:15:50;102600.92;;;18.16;35.91
69239;BME280;56349;51.816;-0.026;2023-01-28T07:18:16;102602.63;;;18.13;35.80
69239;BME280;56349;51.816;-0.026;2023-01-28T07:20:42;102608.65;;;18.09;35.69
69239;BME280;56349;51.816;-0.026;2023-01-28T07:23:08;102603.24;;;18.36;35.65
69239;BME280;56349;51.816;-0.026;2023-01-28T07:25:33;102600.37;;;18.10;35.66
69239;BME280;56349;51.816;-0.026;2023-01-28T07:27:59;102597.51;;;18.09;35.71
69239;BME280;56349;51.816;-0.026;2023-01-28T07:30:25;102597.92;;;18.10;35.89
69239;BME280;56349;51.816;-0.026;2023-01-28T07:32:53;102599.15;;;18.16;36.06
69239;BME280;56349;51.816;-0.026;2023-01-28T07:35:16;102610.76;;;18.22;36.10
69239;BME280;56349;51.816;-0.026;2023-01-28T07:37:42;102605.57;;;18.33;36.11
69239;BME280;56349;51.816;-0.026;2023-01-28T07:40:09;102604.81;;;18.53;36.06
69239;BME280;56349;51.816;-0.026;2023-01-28T07:42:34;102609.23;;;18.79;35.94
69239;BME280;56349;51.816;-0.026;2023-01-28T07:44:59;102613.45;;;18.85;35.75
69239;BME280;56349;51.816;-0.026;2023-01-28T07:47:30;102605.03;;;19.15;35.55
69239;BME280;56349;51.816;-0.026;2023-01-28T07:49:51;102598.35;;;19.19;35.29
69239;BME280;56349;51.816;-0.026;2023-01-28T07:52:17;102603.88;;;19.75;35.02
69239;BME280;56349;51.816;-0.026;2023-01-28T07:54:42;102601.69;;;19.54;34.73
69239;BME280;56349;51.816;-0.026;2023-01-28T07:57:08;102606.81;;;19.60;34.45
69239;BME280;56349;51.816;-0.026;2023-01-28T07:59:34;102610.83;;;19.86;34.17
69239;BME280;56349;51.816;-0.026;2023-01-28T08:02:00;102609.05;;;20.12;33.87
69239;BME280;56349;51.816;-0.026;2023-01-28T08:04:26;102607.39;;;20.34;33.61
69239;BME280;56349;51.816;-0.026;2023-01-28T08:06:52;102603.61;;;20.30;33.26
69239;BME280;56349;51.816;-0.026;2023-01-28T08:09:18;102596.29;;;20.49;32.86
69239;BME280;56349;51.816;-0.026;2023-01-28T08:11:44;102588.54;;;20.64;32.46
69239;BME280;56349;51.816;-0.026;2023-01-28T08:14:09;102590.85;;;20.71;32.12
69239;BME280;56349;51.816;-0.026;2023-01-28T08:16:34;102591.35;;;20.73;31.86
69239;BME280;56349;51.816;-0.026;2023-01-28T08:19:00;102590.91;;;20.68;31.69
69239;BME280;56349;51.816;-0.026;2023-01-28T08:21:26;102589.76;;;20.57;31.60
69239;BME280;56349;51.816;-0.026;2023-01-28T08:23:51;102585.56;;;20.69;31.56
69239;BME280;56349;51.816;-0.026;2023-01-28T08:26:17;102587.01;;;20.51;31.57
69239;BME280;56349;51.816;-0.026;2023-01-28T08:28:43;102585.25;;;20.33;31.58
69239;BME280;56349;51.816;-0.026;2023-01-28T08:31:09;102592.61;;;20.15;31.63
69239;BME280;56349;51.816;-0.026;2023-01-28T08:33:35;102595.24;;;20.00;31.66
69239;BME280;56349;51.816;-0.026;2023-01-28T08:36:01;102592.76;;;19.84;31.75
69239;BME280;56349;51.816;-0.026;2023-01-28T08:38:26;102597.77;;;20.14;31.82
69239;BME280;56349;51.816;-0.026;2023-01-28T08:40:55;102608.18;;;19.77;31.93
69239;BME280;56349;51.816;-0.026;2023-01-28T08:43:18;102604.99;;;19.58;32.09
69239;BME280;56349;51.816;-0.026;2023-01-28T08:45:43;102607.77;;;19.67;32.21
69239;BME280;56349;51.816;-0.026;2023-01-28T08:48:13;102613.08;;;19.52;32.36
69239;BME280;56349;51.816;-0.026;2023-01-28T08:50:37;102620.80;;;19.37;32.43
69239;BME280;56349;51.816;-0.026;2023-01-28T08:53:02;102618.51;;;19.23;32.49
69239;BME280;56349;51.816;-0.026;2023-01-28T08:55:27;102619.82;;;19.36;32.58
69239;BME280;56349;51.816;-0.026;2023-01-28T08:57:52;102620.36;;;19.20;32.67
69239;BME280;56349;51.816;-0.026;2023-01-28T09:00:18;102634.63;;;19.05;32.76
69239;BME280;56349;51.816;-0.026;2023-01-28T09:02:43;102640.45;;;18.87;32.87
69239;BME280;56349;51.816;-0.026;2023-01-28T09:05:09;102639.19;;;18.95;32.95
69239;BME280;56349;51.816;-0.026;2023-01-28T09:07:35;102643.55;;;18.61;33.02
69239;BME280;56349;51.816;-0.026;2023-01-28T09:09:59;102645.91;;;18.71;33.09
69239;BME280;56349;51.816;-0.026;2023-01-28T09:12:25;102650.75;;;18.39;33.17
69239;BME280;56349;51.816;-0.026;2023-01-28T09:14:52;102649.92;;;18.52;33.20
69239;BME280;56349;51.816;-0.026;2023-01-28T09:17:17;102655.20;;;18.41;33.24
69239;BME280;56349;51.816;-0.026;2023-01-28T09:19:42;102661.32;;;18.31;33.31
69239;BME280;56349;51.816;-0.026;2023-01-28T09:22:08;102661.32;;;18.20;33.38
69239;BME280;56349;51.816;-0.026;2023-01-28T09:24:34;102658.17;;;18.09;33.45
69239;BME280;56349;51.816;-0.026;2023-01-28T09:27:00;102657.96;;;17.99;33.52
69239;BME280;56349;51.816;-0.026;2023-01-28T09:29:26;102658.50;;;17.89;33.61
69239;BME280;56349;51.816;-0.026;2023-01-28T09:31:52;102659.11;;;18.30;33.73
69239;BME280;56349;51.816;-0.026;2023-01-28T09:34:17;102655.11;;;17.75;34.00
69239;BME280;56349;51.816;-0.026;2023-01-28T09:36:43;102659.61;;;18.18;34.33
69239;BME280;56349;51.816;-0.026;2023-01-28T09:39:09;102659.77;;;17.65;34.65
69239;BME280;56349;51.816;-0.026;2023-01-28T09:41:44;102655.08;;;17.62;34.75
69239;BME280;56349;51.816;-0.026;2023-01-28T09:44:08;102647.58;;;17.87;34.77
69239;BME280;56349;51.816;-0.026;2023-01-28T09:46:29;102636.12;;;17.83;34.79
69239;BME280;56349;51.816;-0.026;2023-01-28T09:48:52;102629.50;;;18.02;34.81
69239;BME280;56349;51.816;-0.026;2023-01-28T09:51:28;102640.78;;;17.49;34.87
69239;BME280;56349;51.816;-0.026;2023-01-28T09:53:46;102649.84;;;17.72;34.93
69239;BME280;56349;51.816;-0.026;2023-01-28T09:56:13;102648.25;;;17.67;34.98
69239;BME280;56349;51.816;-0.026;2023-01-28T09:58:34;102642.23;;;17.38;35.02
69239;BME280;56349;51.816;-0.026;2023-01-28T10:01:05;102642.91;;;17.35;35.06
69239;BME280;56349;51.816;-0.026;2023-01-28T10:03:33;102639.43;;;17.80;35.09
69239;BME280;56349;51.816;-0.026;2023-01-28T10:05:58;102632.51;;;17.53;35.14
69239;BME280;56349;51.816;-0.026;2023-01-28T10:08:25;102631.71;;;17.24;35.20
69239;BME280;56349;51.816;-0.026;2023-01-28T10:10:46;102638.80;;;17.71;35.21
69239;BME280;56349;51.816;-0.026;2023-01-28T10:13:20;102635.33;;;17.46;35.25
69239;BME280;56349;51.816;-0.026;2023-01-28T10:15:44;102638.17;;;17.42;35.30
69239;BME280;56349;51.816;-0.026;2023-01-28T10:18:01;102643.03;;;17.11;35.33
69239;BME280;56349;51.816;-0.026;2023-01-28T10:20:27;102643.01;;;17.36;35.34
69239;BME280;56349;51.816;-0.026;2023-01-28T10:22:54;102644.65;;;17.33;35.39
69239;BME280;56349;51.816;-0.026;2023-01-28T10:25:18;102639.15;;;17.54;35.47
69239;BME280;56349;51.816;-0.026;2023-01-28T10:27:41;102626.32;;;17.53;35.56
69239;BME280;56349;51.816;-0.026;2023-01-28T10:30:17;102620.27;;;17.51;35.58
69239;BME280;56349;51.816;-0.026;2023-01-28T10:32:33;102628.90;;;17.49;35.56
69239;BME280;56349;51.816;-0.026;2023-01-28T10:34:57;102623.98;;;17.45;35.53
69239;BME280;56349;51.816;-0.026;2023-01-28T10:37:23;102610.57;;;17.42;35.53
69239;BME280;56349;51.816;-0.026;2023-01-28T10:39:48;102607.85;;;17.39;35.54
69239;BME280;56349;51.816;-0.026;2023-01-28T10:42:23;102608.97;;;17.20;35.48
69239;BME280;56349;51.816;-0.026;2023-01-28T10:44:41;102598.40;;;17.39;35.51
69239;BME280;56349;51.816;-0.026;2023-01-28T10:47:11;102591.59;;;17.35;35.53
69239;BME280;56349;51.816;-0.026;2023-01-28T10:49:30;102585.98;;;17.54;35.55
69239;BME280;56349;51.816;-0.026;2023-01-28T10:51:56;102584.42;;;17.30;35.57
69239;BME280;56349;51.816;-0.026;2023-01-28T10:54:23;102575.81;;;17.28;35.56
69239;BME280;56349;51.816;-0.026;2023-01-28T10:56:51;102567.29;;;17.26;35.57
69239;BME280;56349;51.816;-0.026;2023-01-28T10:59:19;102563.84;;;17.24;35.59
69239;BME280;56349;51.816;-0.026;2023-01-28T11:01:42;102564.97;;;17.24;35.60
69239;BME280;56349;51.816;-0.026;2023-01-28T11:06:31;102557.37;;;17.22;35.59
69239;BME280;56349;51.816;-0.026;2023-01-28T11:08:57;102557.55;;;17.45;35.57
69239;BME280;56349;51.816;-0.026;2023-01-28T11:11:24;102562.65;;;17.22;35.58
69239;BME280;56349;51.816;-0.026;2023-01-28T11:13:50;102567.36;;;17.41;35.59
69239;BME280;56349;51.816;-0.026;2023-01-28T11:16:16;102571.43;;;17.18;35.57
69239;BME280;56349;51.816;-0.026;2023-01-28T11:18:46;102571.19;;;17.19;35.57
69239;BME280;56349;51.816;-0.026;2023-01-28T11:21:12;102569.69;;;17.19;35.56
69239;BME280;56349;51.816;-0.026;2023-01-28T11:23:33;102568.61;;;17.19;35.53
69239;BME280;56349;51.816;-0.026;2023-01-28T11:26:03;102567.20;;;17.19;35.50
69239;BME280;56349;51.816;-0.026;2023-01-28T11:28:21;102566.30;;;17.19;35.48
69239;BME280;56349;51.816;-0.026;2023-01-28T11:30:50;102560.36;;;17.18;35.46
69239;BME280;56349;51.816;-0.026;2023-01-28T11:33:16;102565.34;;;17.15;35.48
69239;BME280;56349;51.816;-0.026;2023-01-28T11:35:36;102567.92;;;17.35;35.47
69239;BME280;56349;51.816;-0.026;2023-01-28T11:38:15;102567.04;;;17.10;35.48
69239;BME280;56349;51.816;-0.026;2023-01-28T11:40:28;102565.08;;;17.09;35.47
69239;BME280;56349;51.816;-0.026;2023-01-28T11:42:55;102564.84;;;17.08;35.46
69239;BME280;56349;51.816;-0.026;2023-01-28T11:45:27;102563.79;;;17.30;35.44
69239;BME280;56349;51.816;-0.026;2023-01-28T11:47:57;102565.05;;;17.05;35.44
69239;BME280;56349;51.816;-0.026;2023-01-28T11:50:21;102569.00;;;17.04;35.44
69239;BME280;56349;51.816;-0.026;2023-01-28T11:52:45;102577.97;;;17.04;35.42
69239;BME280;56349;51.816;-0.026;2023-01-28T11:55:16;102579.74;;;17.26;35.38
69239;BME280;56349;51.816;-0.026;2023-01-28T11:57:34;102576.76;;;17.03;35.37
69239;BME280;56349;51.816;-0.026;2023-01-28T12:02:31;102570.60;;;17.23;35.33
69239;BME280;56349;51.816;-0.026;2023-01-28T12:04:54;102571.96;;;17.01;35.31
69239;BME280;56349;51.816;-0.026;2023-01-28T12:07:21;102576.35;;;17.00;35.29
69239;BME280;56349;51.816;-0.026;2023-01-28T12:09:44;102574.53;;;17.21;35.27
69239;BME280;56349;51.816;-0.026;2023-01-28T12:12:13;102571.77;;;16.98;35.30
69239;BME280;56349;51.816;-0.026;2023-01-28T12:14:35;102570.58;;;16.97;35.45
69239;BME280;56349;51.816;-0.026;2023-01-28T12:17:04;102571.19;;;16.96;35.71
69239;BME280;56349;51.816;-0.026;2023-01-28T12:19:29;102574.52;;;16.97;36.14
69239;BME280;56349;51.816;-0.026;2023-01-28T12:21:57;102573.55;;;16.98;36.35
69239;BME280;56349;51.816;-0.026;2023-01-28T12:24:21;102570.09;;;17.02;36.51
69239;BME280;56349;51.816;-0.026;2023-01-28T12:26:44;102564.61;;;17.25;36.62
69239;BME280;56349;51.816;-0.026;2023-01-28T12:29:14;102563.83;;;17.04;36.65
69239;BME280;56349;51.816;-0.026;2023-01-28T12:31:37;102564.45;;;17.28;36.70
69239;BME280;56349;51.816;-0.026;2023-01-28T12:34:09;102561.32;;;17.07;36.44
69239;BME280;56349;51.816;-0.026;2023-01-28T12:36:29;102560.37;;;17.13;36.24
69239;BME280;56349;51.816;-0.026;2023-01-28T12:38:53;102559.84;;;17.13;36.13